createdAt,value
2018-10-18T00:01:42.561Z,26.23
2018-10-18T00:04:11.050Z,27.30
2018-10-18T00:06:39.622Z,23.60
2018-10-18T00:09:09.493Z,26.20
2018-10-18T00:11:38.082Z,21.87
2018-10-18T00:14:07.139Z,25.50
2018-10-18T00:16:35.602Z,25.93
2018-10-18T00:19:04.147Z,22.53
2018-10-18T00:21:32.674Z,24.97
2018-10-18T00:24:01.151Z,25.20
2018-10-18T00:26:29.696Z,24.30
2018-10-18T00:28:58.278Z,25.60
2018-10-18T00:31:26.773Z,20.77
2018-10-18T00:33:55.311Z,25.73
2018-10-18T00:36:23.849Z,20.80
2018-10-18T00:38:52.433Z,24.57
2018-10-18T00:41:21.024Z,28.00
2018-10-18T00:43:49.605Z,28.83
2018-10-18T00:46:18.129Z,26.07
2018-10-18T00:48:46.798Z,27.17
2018-10-18T00:51:15.370Z,28.37
2018-10-18T00:53:43.956Z,26.97
2018-10-18T00:56:12.553Z,31.63
2018-10-18T00:58:40.975Z,31.03
2018-10-18T01:01:09.509Z,25.43
2018-10-18T01:03:38.017Z,27.07
2018-10-18T01:06:06.623Z,25.67
2018-10-18T01:08:35.047Z,27.90
2018-10-18T01:11:03.567Z,25.70
2018-10-18T01:13:32.029Z,22.73
2018-10-18T01:16:00.564Z,23.60
2018-10-18T01:18:29.069Z,22.87
2018-10-18T01:20:57.804Z,27.20
2018-10-18T01:23:26.278Z,30.90
2018-10-18T01:25:54.811Z,26.83
2018-10-18T01:28:23.388Z,25.60
2018-10-18T01:30:51.860Z,26.40
2018-10-18T01:33:20.360Z,26.23
2018-10-18T01:35:48.873Z,26.50
2018-10-18T01:38:17.558Z,25.90
2018-10-18T01:40:46.011Z,26.80
2018-10-18T01:43:14.623Z,28.17
2018-10-18T01:45:43.101Z,29.00
2018-10-18T01:48:11.764Z,28.30
2018-10-18T01:50:40.216Z,29.30
2018-10-18T01:53:09.163Z,36.97
2018-10-18T01:55:37.723Z,30.40
2018-10-18T01:58:07.145Z,36.43
2018-10-18T02:00:35.658Z,29.57
2018-10-18T02:03:04.232Z,35.83
2018-10-18T02:05:33.038Z,30.97
2018-10-18T02:08:01.603Z,27.80
2018-10-18T02:10:30.045Z,31.73
2018-10-18T02:12:58.608Z,30.03
2018-10-18T02:15:27.066Z,32.70
2018-10-18T02:17:56.019Z,33.80
2018-10-18T02:20:24.570Z,33.50
2018-10-18T02:22:53.072Z,32.00
2018-10-18T02:25:21.604Z,34.10
2018-10-18T02:27:50.096Z,32.70
2018-10-18T02:30:18.648Z,30.57
2018-10-18T02:32:47.216Z,32.53
2018-10-18T02:35:15.664Z,30.17
2018-10-18T02:37:44.147Z,31.97
2018-10-18T02:40:12.610Z,26.20
2018-10-18T02:42:41.181Z,25.57
2018-10-18T02:45:09.737Z,27.67
2018-10-18T02:47:38.265Z,27.97
2018-10-18T02:50:07.119Z,27.67
2018-10-18T02:52:35.596Z,32.33
2018-10-18T02:55:04.377Z,27.13
2018-10-18T02:57:32.871Z,29.93
2018-10-18T03:00:01.567Z,38.30
2018-10-18T03:02:30.037Z,32.17
2018-10-18T03:04:58.580Z,26.67
2018-10-18T03:07:27.090Z,31.00
2018-10-18T03:09:55.536Z,35.23
2018-10-18T03:12:24.062Z,31.60
2018-10-18T03:14:52.554Z,24.00
2018-10-18T03:17:21.096Z,29.13
2018-10-18T03:19:49.617Z,28.50
2018-10-18T03:22:18.089Z,29.90
2018-10-18T03:24:46.609Z,29.87
2018-10-18T03:27:15.241Z,27.00
2018-10-18T03:29:43.695Z,30.03
2018-10-18T03:32:12.205Z,29.23
2018-10-18T03:34:40.692Z,31.57
2018-10-18T03:37:09.208Z,28.00
2018-10-18T03:39:37.705Z,25.50
2018-10-18T03:42:06.259Z,31.17
2018-10-18T03:44:34.845Z,25.97
2018-10-18T03:47:03.531Z,28.93
2018-10-18T03:49:32.011Z,31.97
2018-10-18T03:52:00.548Z,27.53
2018-10-18T03:54:29.009Z,29.90
2018-10-18T03:56:57.518Z,26.47
2018-10-18T03:59:26.121Z,28.20
2018-10-18T04:01:54.748Z,28.60
2018-10-18T04:04:23.272Z,26.17
2018-10-18T04:06:51.885Z,27.23
2018-10-18T04:09:20.397Z,25.70
2018-10-18T04:11:48.962Z,22.83
2018-10-18T04:14:17.460Z,29.93
2018-10-18T04:16:45.947Z,27.70
2018-10-18T04:19:14.530Z,25.57
2018-10-18T04:21:43.116Z,35.13
2018-10-18T04:24:11.712Z,28.10
2018-10-18T04:26:40.120Z,29.50
2018-10-18T04:29:08.717Z,28.13
2018-10-18T04:31:37.230Z,28.60
2018-10-18T04:34:05.820Z,29.00
2018-10-18T04:36:34.308Z,33.77
2018-10-18T04:39:02.862Z,25.63
2018-10-18T04:41:31.405Z,28.93
2018-10-18T04:43:59.857Z,27.60
2018-10-18T04:46:28.352Z,26.80
2018-10-18T04:48:59.840Z,27.90
2018-10-18T04:51:28.341Z,28.33
2018-10-18T04:53:56.897Z,29.27
2018-10-18T04:56:25.499Z,27.10
2018-10-18T04:58:53.981Z,25.57
2018-10-18T05:01:22.627Z,24.53
2018-10-18T05:03:50.975Z,27.20
2018-10-18T05:06:19.487Z,29.00
2018-10-18T05:08:48.214Z,24.97
2018-10-18T05:11:16.787Z,32.13
2018-10-18T05:13:45.292Z,29.37
2018-10-18T05:16:13.769Z,29.10
2018-10-18T05:18:42.315Z,27.23
2018-10-18T05:21:10.794Z,28.60
2018-10-18T05:23:39.319Z,28.67
2018-10-18T05:26:08.303Z,28.80
2018-10-18T05:28:36.831Z,28.00
2018-10-18T05:31:06.164Z,23.83
2018-10-18T05:33:34.650Z,28.43
2018-10-18T05:36:03.158Z,35.30
2018-10-18T05:38:31.761Z,32.20
2018-10-18T05:41:00.222Z,38.47
2018-10-18T05:43:28.685Z,33.93
2018-10-18T05:45:57.296Z,32.17
2018-10-18T05:48:25.758Z,33.10
2018-10-18T05:50:54.312Z,32.43
2018-10-18T05:53:22.995Z,32.60
2018-10-18T05:55:51.491Z,34.87
2018-10-18T05:58:20.016Z,33.67
2018-10-18T06:00:48.485Z,35.23
2018-10-18T06:03:16.973Z,32.37
2018-10-18T06:05:45.522Z,31.33
2018-10-18T06:08:14.023Z,27.77
2018-10-18T06:10:53.762Z,33.30
2018-10-18T06:13:22.281Z,38.13
2018-10-18T06:15:50.747Z,40.20
2018-10-18T06:18:19.257Z,34.83
2018-10-18T06:20:47.753Z,35.87
2018-10-18T06:23:16.243Z,37.90
2018-10-18T06:25:44.753Z,42.73
2018-10-18T06:28:13.299Z,32.90
2018-10-18T06:30:41.820Z,37.90
2018-10-18T06:33:10.475Z,38.90
2018-10-18T06:35:38.941Z,37.33
2018-10-18T06:38:07.720Z,44.83
2018-10-18T06:40:36.218Z,40.07
2018-10-18T06:43:05.023Z,33.07
2018-10-18T06:45:33.547Z,32.97
2018-10-18T06:48:02.072Z,33.93
2018-10-18T06:50:30.619Z,37.20
2018-10-18T06:52:59.072Z,32.10
2018-10-18T06:55:27.577Z,37.20
2018-10-18T06:57:56.106Z,38.10
2018-10-18T07:00:25.244Z,32.63
2018-10-18T07:02:53.719Z,34.67
2018-10-18T07:05:22.275Z,44.83
2018-10-18T07:07:50.761Z,37.47
2018-10-18T07:10:19.289Z,37.73
2018-10-18T07:12:47.758Z,39.70
2018-10-18T07:15:16.455Z,37.43
2018-10-18T07:17:45.173Z,37.73
2018-10-18T07:20:14.312Z,35.50
2018-10-18T07:22:42.913Z,41.97
2018-10-18T07:25:13.722Z,34.23
2018-10-18T07:27:42.583Z,39.10
2018-10-18T07:30:12.929Z,38.37
2018-10-18T07:32:41.590Z,42.20
2018-10-18T07:35:11.384Z,37.93
2018-10-18T07:37:39.908Z,37.30
2018-10-18T07:40:11.020Z,36.73
2018-10-18T07:42:39.518Z,39.10
2018-10-18T07:45:08.882Z,39.83
2018-10-18T07:47:37.503Z,35.27
2018-10-18T07:50:06.301Z,27.20
2018-10-18T07:52:34.840Z,48.13
2018-10-18T07:55:03.378Z,47.77
2018-10-18T07:57:31.915Z,35.83
2018-10-18T08:00:00.466Z,39.57
2018-10-18T08:02:28.908Z,40.83
2018-10-18T08:04:57.405Z,40.03
2018-10-18T08:07:25.967Z,35.30
2018-10-18T08:09:54.563Z,33.77
2018-10-18T08:12:23.032Z,33.60
2018-10-18T08:14:51.564Z,33.70
2018-10-18T08:17:20.154Z,32.87
2018-10-18T08:19:48.573Z,28.73
2018-10-18T08:22:17.053Z,33.87
2018-10-18T08:24:45.536Z,31.40
2018-10-18T08:27:14.093Z,39.37
2018-10-18T08:29:42.557Z,34.70
2018-10-18T08:32:11.130Z,46.53
2018-10-18T08:34:39.676Z,32.80
2018-10-18T08:37:08.308Z,34.93
2018-10-18T08:39:36.705Z,30.73
2018-10-18T08:42:05.842Z,32.30
2018-10-18T08:44:34.427Z,34.40
2018-10-18T08:47:02.853Z,35.60
2018-10-18T08:49:31.421Z,33.63
2018-10-18T08:51:59.927Z,33.00
2018-10-18T08:54:28.486Z,39.10
2018-10-18T08:56:56.956Z,32.13
2018-10-18T08:59:26.119Z,28.23
2018-10-18T09:01:54.542Z,33.50
2018-10-18T09:04:23.001Z,28.00
2018-10-18T09:06:51.538Z,33.13
2018-10-18T09:09:20.081Z,33.23
2018-10-18T09:11:48.744Z,29.67
2018-10-18T09:14:17.300Z,31.53
2018-10-18T09:16:45.892Z,28.83
2018-10-18T09:19:14.470Z,30.30
2018-10-18T09:21:42.899Z,28.10
2018-10-18T09:24:11.411Z,27.80
2018-10-18T09:26:39.978Z,30.80
2018-10-18T09:29:08.497Z,28.10
2018-10-18T09:31:36.969Z,24.97
2018-10-18T09:34:05.713Z,27.77
2018-10-18T09:36:34.286Z,31.33
2018-10-18T09:39:02.822Z,27.17
2018-10-18T09:41:31.316Z,29.40
2018-10-18T09:44:03.959Z,29.03
2018-10-18T09:46:33.748Z,30.67
2018-10-18T09:49:03.177Z,32.03
2018-10-18T09:51:31.708Z,31.83
2018-10-18T09:54:01.092Z,30.40
2018-10-18T09:56:30.155Z,29.70
2018-10-18T09:58:58.693Z,26.27
2018-10-18T10:01:32.557Z,26.80
2018-10-18T10:04:01.121Z,30.93
2018-10-18T10:06:29.601Z,33.30
2018-10-18T10:08:58.170Z,33.07
2018-10-18T10:11:26.763Z,28.20
2018-10-18T10:13:55.273Z,27.97
2018-10-18T10:16:23.765Z,26.77
2018-10-18T10:18:52.299Z,32.60
2018-10-18T10:21:20.864Z,31.20
2018-10-18T10:23:49.393Z,30.70
2018-10-18T10:26:18.025Z,26.17
2018-10-18T10:28:46.550Z,25.43
2018-10-18T10:31:15.147Z,24.40
2018-10-18T10:33:43.605Z,29.97
2018-10-18T10:36:12.139Z,23.10
2018-10-18T10:38:40.686Z,26.57
2018-10-18T10:41:09.361Z,23.03
2018-10-18T10:43:37.840Z,25.03
2018-10-18T10:46:06.401Z,21.90
2018-10-18T10:48:34.837Z,22.30
2018-10-18T10:51:03.342Z,20.27
2018-10-18T10:53:31.856Z,27.53
2018-10-18T10:56:00.499Z,27.23
2018-10-18T10:58:28.967Z,29.83
2018-10-18T11:01:14.702Z,36.97
2018-10-18T11:03:43.608Z,24.93
2018-10-18T11:06:12.588Z,28.23
2018-10-18T11:08:41.163Z,29.63
2018-10-18T11:11:10.079Z,24.73
2018-10-18T11:13:38.611Z,27.97
2018-10-18T11:16:07.405Z,24.93
2018-10-18T11:18:36.846Z,24.87
2018-10-18T11:21:06.552Z,28.47
2018-10-18T11:23:35.450Z,28.27
2018-10-18T11:26:04.205Z,33.70
2018-10-18T11:28:32.757Z,25.60
2018-10-18T11:31:01.383Z,23.57
2018-10-18T11:33:30.030Z,28.10
2018-10-18T11:35:58.584Z,29.70
2018-10-18T11:38:27.158Z,29.37
2018-10-18T11:40:55.633Z,24.40
2018-10-18T11:43:24.130Z,25.47
2018-10-18T11:45:52.631Z,28.47
2018-10-18T11:48:21.178Z,25.80
2018-10-18T11:50:49.650Z,31.53
2018-10-18T11:53:18.189Z,25.97
2018-10-18T11:55:46.761Z,27.20
2018-10-18T11:58:15.490Z,24.60
2018-10-18T12:00:44.040Z,23.83
2018-10-18T12:03:12.809Z,26.07
2018-10-18T12:05:41.346Z,25.63
2018-10-18T12:08:09.968Z,25.60
2018-10-18T12:10:38.456Z,23.13
2018-10-18T12:13:07.025Z,23.17
2018-10-18T12:15:35.679Z,21.83
2018-10-18T12:18:04.326Z,26.17
2018-10-18T12:20:32.861Z,23.13
2018-10-18T12:23:01.470Z,24.77
2018-10-18T12:25:30.024Z,23.40
2018-10-18T12:27:58.820Z,22.93
2018-10-18T12:30:27.310Z,22.87
2018-10-18T12:32:55.808Z,21.07
2018-10-18T12:35:24.310Z,21.27
2018-10-18T12:37:52.842Z,22.33
2018-10-18T12:40:21.469Z,22.33
2018-10-18T12:42:50.759Z,24.80
2018-10-18T12:45:19.284Z,22.50
2018-10-18T12:47:47.765Z,23.53
2018-10-18T12:50:16.397Z,24.57
2018-10-18T12:52:44.865Z,28.67
2018-10-18T12:55:13.433Z,21.90
2018-10-18T12:57:41.929Z,23.13
2018-10-18T13:00:11.148Z,22.17
2018-10-18T13:02:39.844Z,23.33
2018-10-18T13:05:09.143Z,24.80
2018-10-18T13:07:37.778Z,20.80
2018-10-18T13:10:08.207Z,24.03
2018-10-18T13:12:37.076Z,25.50
2018-10-18T13:15:06.790Z,26.60
2018-10-18T13:17:35.268Z,25.50
2018-10-18T13:20:04.163Z,20.23
2018-10-18T13:22:32.584Z,27.40
2018-10-18T13:25:01.193Z,20.53
2018-10-18T13:27:29.802Z,19.97
2018-10-18T13:29:58.339Z,20.20
2018-10-18T13:32:26.949Z,22.73
2018-10-18T13:34:55.543Z,19.30
2018-10-18T13:37:24.073Z,20.20
2018-10-18T13:39:52.549Z,20.50
2018-10-18T13:42:21.017Z,23.17
2018-10-18T13:44:49.517Z,19.33
2018-10-18T13:47:18.021Z,21.63
2018-10-18T13:49:46.524Z,21.90
2018-10-18T13:52:15.059Z,20.27
2018-10-18T13:54:43.597Z,22.37
2018-10-18T13:57:12.105Z,21.40
2018-10-18T13:59:51.935Z,23.60
2018-10-18T14:02:20.426Z,21.83
2018-10-18T14:04:49.779Z,24.37
2018-10-18T14:07:18.325Z,20.97
2018-10-18T14:09:46.921Z,22.53
2018-10-18T14:12:15.837Z,18.07
2018-10-18T14:14:44.314Z,20.23
2018-10-18T14:17:12.964Z,17.30
2018-10-18T14:19:41.500Z,16.80
2018-10-18T14:22:10.046Z,17.13
2018-10-18T14:24:38.553Z,17.63
2018-10-18T14:27:07.223Z,17.63
2018-10-18T14:29:35.730Z,18.43
2018-10-18T14:32:04.303Z,16.23
2018-10-18T14:34:32.759Z,16.60
2018-10-18T14:37:01.394Z,16.50
2018-10-18T14:39:29.944Z,16.83
2018-10-18T14:41:58.500Z,16.73
2018-10-18T14:44:27.132Z,16.93
2018-10-18T14:46:55.620Z,15.20
2018-10-18T14:49:24.122Z,16.33
2018-10-18T14:51:52.789Z,16.13
2018-10-18T14:54:21.290Z,16.20
2018-10-18T14:56:49.854Z,18.13
2018-10-18T14:59:18.493Z,17.80
2018-10-18T15:01:47.285Z,16.60
2018-10-18T15:04:15.834Z,17.57
2018-10-18T15:06:44.343Z,19.60
2018-10-18T15:09:12.929Z,15.33
2018-10-18T15:11:41.469Z,15.90
2018-10-18T15:14:10.221Z,16.73
2018-10-18T15:16:38.639Z,16.37
2018-10-18T15:19:07.340Z,15.43
2018-10-18T15:21:35.897Z,17.27
2018-10-18T15:24:04.696Z,17.90
2018-10-18T15:26:33.429Z,14.30
2018-10-18T15:29:01.778Z,14.17
2018-10-18T15:31:30.306Z,16.47
2018-10-18T15:33:58.840Z,13.53
2018-10-18T15:36:27.768Z,12.90
2018-10-18T15:38:56.510Z,15.27
2018-10-18T15:41:25.246Z,12.73
2018-10-18T15:43:53.791Z,14.57
2018-10-18T15:46:22.284Z,13.03
2018-10-18T15:48:50.821Z,14.57
2018-10-18T15:51:19.555Z,12.60
2018-10-18T15:53:48.057Z,12.63
2018-10-18T15:56:16.668Z,12.20
2018-10-18T15:58:45.240Z,11.70
2018-10-18T16:01:13.919Z,11.47
2018-10-18T16:03:42.740Z,10.97
2018-10-18T16:06:11.775Z,14.80
2018-10-18T16:08:40.386Z,10.90
2018-10-18T16:11:09.054Z,12.67
2018-10-18T16:13:38.647Z,13.17
2018-10-18T16:16:07.737Z,12.27
2018-10-18T16:18:36.483Z,12.87
2018-10-18T16:21:05.140Z,12.07
2018-10-18T16:23:34.761Z,11.83
2018-10-18T16:26:03.413Z,11.00
2018-10-18T16:28:31.781Z,10.47
2018-10-18T16:31:00.444Z,12.40
2018-10-18T16:33:29.081Z,12.40
2018-10-18T16:35:57.559Z,17.17
2018-10-18T16:38:26.158Z,13.57
2018-10-18T16:40:54.732Z,13.13
2018-10-18T16:43:23.358Z,14.70
2018-10-18T16:45:51.972Z,23.60
2018-10-18T16:48:20.557Z,13.70
2018-10-18T16:50:49.070Z,11.30
2018-10-18T16:53:17.660Z,13.60
2018-10-18T16:55:46.560Z,12.80
2018-10-18T16:58:15.185Z,11.90
2018-10-18T17:00:43.893Z,12.03
2018-10-18T17:03:12.462Z,11.60
2018-10-18T17:05:41.018Z,11.90
2018-10-18T17:08:09.757Z,12.43
2018-10-18T17:10:38.905Z,12.67
2018-10-18T17:13:07.746Z,11.33
2018-10-18T17:15:36.404Z,13.67
2018-10-18T17:18:05.023Z,15.87
2018-10-18T17:20:33.982Z,15.53
2018-10-18T17:23:02.642Z,16.70
2018-10-18T17:25:31.137Z,14.73
2018-10-18T17:27:59.741Z,15.87
2018-10-18T17:30:28.458Z,15.53
2018-10-18T17:32:57.022Z,13.77
2018-10-18T17:35:27.059Z,13.90
2018-10-18T17:37:56.353Z,12.50
2018-10-18T17:40:25.104Z,14.33
2018-10-18T17:42:53.628Z,12.97
2018-10-18T17:45:22.165Z,12.13
2018-10-18T17:47:51.797Z,14.80
2018-10-18T17:50:20.920Z,12.17
2018-10-18T17:52:49.672Z,15.40
2018-10-18T17:55:18.838Z,13.10
2018-10-18T17:57:48.466Z,12.73
2018-10-18T18:00:17.667Z,18.30
2018-10-18T18:02:46.670Z,14.47
2018-10-18T18:05:17.964Z,13.47
2018-10-18T18:07:47.932Z,13.33
2018-10-18T18:10:20.207Z,14.13
2018-10-18T18:12:50.577Z,14.20
2018-10-18T18:15:19.901Z,13.40
2018-10-18T18:17:48.909Z,16.50
2018-10-18T18:20:18.029Z,12.43
2018-10-18T18:22:47.527Z,14.53
2018-10-18T18:25:16.695Z,13.87
2018-10-18T18:27:45.676Z,16.57
2018-10-18T18:30:15.804Z,15.73
2018-10-18T18:32:44.839Z,18.63
2018-10-18T18:35:14.644Z,21.53
2018-10-18T18:37:44.119Z,24.97
2018-10-18T18:40:13.845Z,33.87
2018-10-18T18:42:44.133Z,25.80
2018-10-18T18:45:25.818Z,27.80
2018-10-18T18:47:55.540Z,27.23
2018-10-18T18:50:24.232Z,22.37
2018-10-18T18:52:53.042Z,24.37
2018-10-18T18:55:28.222Z,19.20
2018-10-18T18:57:58.442Z,18.37
2018-10-18T19:00:28.609Z,18.37
2018-10-18T19:02:58.244Z,20.30
2018-10-18T19:05:31.497Z,20.20
2018-10-18T19:08:00.549Z,18.63
2018-10-18T19:10:29.605Z,18.40
2018-10-18T19:12:58.902Z,17.57
2018-10-18T19:15:28.254Z,23.93
2018-10-18T19:17:57.722Z,20.90
2018-10-18T19:20:28.164Z,19.23
2018-10-18T19:22:59.055Z,21.73
2018-10-18T19:25:28.154Z,25.83
2018-10-18T19:27:56.934Z,25.27
2018-10-18T19:30:26.917Z,20.10
2018-10-18T19:32:56.950Z,20.43
2018-10-18T19:35:26.997Z,19.50
2018-10-18T19:37:56.685Z,22.90
2018-10-18T19:40:25.595Z,25.50
2018-10-18T19:42:54.394Z,23.83
2018-10-18T19:45:22.932Z,20.37
2018-10-18T19:47:51.879Z,20.13
2018-10-18T19:50:20.486Z,20.97
2018-10-18T19:52:49.096Z,20.80
2018-10-18T19:55:17.637Z,19.70
2018-10-18T19:57:46.473Z,23.67
2018-10-18T20:00:15.404Z,24.70
2018-10-18T20:02:44.129Z,22.43
2018-10-18T20:05:12.990Z,24.77
2018-10-18T20:07:41.647Z,23.77
2018-10-18T20:10:10.568Z,22.47
2018-10-18T20:12:39.210Z,26.53
2018-10-18T20:15:08.360Z,30.40
2018-10-18T20:17:37.233Z,24.10
2018-10-18T20:20:07.782Z,27.77
2018-10-18T20:22:36.774Z,23.60
2018-10-18T20:25:06.422Z,28.60
2018-10-18T20:27:34.997Z,27.17
2018-10-18T20:30:04.212Z,31.07
2018-10-18T20:32:32.851Z,24.27
2018-10-18T20:35:01.689Z,30.43
2018-10-18T20:37:30.395Z,30.43
2018-10-18T20:39:59.110Z,26.30
2018-10-18T20:42:27.672Z,35.90
2018-10-18T20:44:56.281Z,30.63
2018-10-18T20:47:25.361Z,27.37
2018-10-18T20:49:54.533Z,26.90
2018-10-18T20:52:23.991Z,30.63
2018-10-18T20:54:53.154Z,30.37
2018-10-18T20:57:22.106Z,27.40
2018-10-18T20:59:51.446Z,29.70
2018-10-18T21:02:20.173Z,27.70
2018-10-18T21:04:48.983Z,31.83
2018-10-18T21:07:18.048Z,26.90
2018-10-18T21:09:46.937Z,29.33
2018-10-18T21:12:16.174Z,30.97
2018-10-18T21:14:45.057Z,32.60
2018-10-18T21:17:14.049Z,28.33
2018-10-18T21:19:42.679Z,28.90
2018-10-18T21:22:11.248Z,28.67
2018-10-18T21:24:39.857Z,31.63
2018-10-18T21:27:08.449Z,30.30
2018-10-18T21:29:36.943Z,28.90
2018-10-18T21:32:05.454Z,28.43
2018-10-18T21:34:34.007Z,31.83
2018-10-18T21:37:02.545Z,36.53
2018-10-18T21:39:33.479Z,33.10
2018-10-18T21:42:02.938Z,35.07
2018-10-18T21:44:33.013Z,36.63
2018-10-18T21:47:02.052Z,33.93
2018-10-18T21:49:31.257Z,37.10
2018-10-18T21:51:59.881Z,36.83
2018-10-18T21:54:28.761Z,37.23
2018-10-18T21:56:57.881Z,36.03
2018-10-18T21:59:26.436Z,36.90
2018-10-18T22:01:54.897Z,41.50
2018-10-18T22:04:23.426Z,38.37
2018-10-18T22:06:51.902Z,40.60
2018-10-18T22:09:20.389Z,41.00
2018-10-18T22:11:48.878Z,39.90
2018-10-18T22:14:17.454Z,35.87
2018-10-18T22:16:45.953Z,44.80
2018-10-18T22:19:14.565Z,41.13
2018-10-18T22:21:43.040Z,41.47
2018-10-18T22:24:11.679Z,37.23
2018-10-18T22:26:40.201Z,38.47
2018-10-18T22:29:08.859Z,39.30
2018-10-18T22:31:37.553Z,43.73
2018-10-18T22:34:06.307Z,48.00
2018-10-18T22:36:34.856Z,45.13
2018-10-18T22:39:04.986Z,44.50
2018-10-18T22:41:33.442Z,43.33
2018-10-18T22:44:02.042Z,42.00
2018-10-18T22:46:30.583Z,44.23
2018-10-18T22:48:59.106Z,47.60
2018-10-18T22:51:27.738Z,42.27
2018-10-18T22:53:56.209Z,40.23
2018-10-18T22:56:24.833Z,46.37
2018-10-18T22:58:53.372Z,41.57
2018-10-18T23:01:21.866Z,46.53
2018-10-18T23:03:50.337Z,51.80
2018-10-18T23:06:18.883Z,45.10
2018-10-18T23:08:47.384Z,48.20
2018-10-18T23:11:15.954Z,44.80
2018-10-18T23:13:44.435Z,43.60
2018-10-18T23:16:13.065Z,50.13
2018-10-18T23:18:41.597Z,44.90
2018-10-18T23:21:10.208Z,48.83
2018-10-18T23:23:38.625Z,53.53
2018-10-18T23:26:07.173Z,54.60
2018-10-18T23:28:35.767Z,51.30
2018-10-18T23:31:04.513Z,51.07
2018-10-18T23:33:33.075Z,50.50
2018-10-18T23:36:01.568Z,51.00
2018-10-18T23:38:30.104Z,47.00
2018-10-18T23:40:58.610Z,50.57
2018-10-18T23:43:27.170Z,47.87
2018-10-18T23:45:55.796Z,57.97
2018-10-18T23:48:24.381Z,48.57
2018-10-18T23:50:53.480Z,56.07
2018-10-18T23:53:21.974Z,51.30
2018-10-18T23:55:50.469Z,53.60
2018-10-18T23:58:19.007Z,50.40
